Time;durP1;ratioP1;P1;durP2;ratioP2;P2;SDS_P1;SDS_P2;PMS_P1;PMS_P2;Temp;Humidity;BMP_temperature;BMP_pressure;BME280_temperature;BME280_humidity;BME280_pressure;Samples;Min_cycle;Max_cycle;Signal;HPM_P1;HPM_P2
2022/11/26 00:00:49;;;;;;;30.65;11.23;;;5.70;99.90;;;;;;5098932;27;20100;-83
2022/11/26 00:03:15;;;;;;;31.40;11.95;;;7.20;99.90;;;;;;5082038;27;20082;-82
2022/11/26 00:05:42;;;;;;;31.50;11.90;;;5.80;99.90;;;;;;5132962;27;20475;-84
2022/11/26 00:08:28;;;;;;;28.25;12.05;;;5.80;99.90;;;;;;5119209;27;20061;-83
2022/11/26 00:10:53;;;;;;;30.35;11.07;;;6.00;99.90;;;;;;5117599;27;20047;-84
2022/11/26 00:13:21;;;;;;;26.58;11.48;;;5.90;99.90;;;;;;5098603;27;20051;-83
2022/11/26 00:15:47;;;;;;;31.73;11.45;;;7.40;99.90;;;;;;5081469;27;20554;-83
2022/11/26 00:18:14;;;;;;;37.65;11.57;;;6.00;99.90;;;;;;5115311;27;20395;-83
2022/11/26 00:20:43;;;;;;;23.48;10.85;;;5.90;99.90;;;;;;5115860;27;20561;-81
2022/11/26 00:23:19;;;;;;;28.92;11.15;;;5.80;99.90;;;;;;5102035;27;20046;-82
2022/11/26 00:25:47;;;;;;;29.88;11.75;;;5.80;99.90;;;;;;5100462;27;20051;-82
2022/11/26 00:28:25;;;;;;;34.17;10.43;;;6.10;99.90;;;;;;5115358;27;20062;-82
2022/11/26 00:30:51;;;;;;;30.08;11.02;;;5.80;99.90;;;;;;5132346;27;20504;-83
2022/11/26 00:33:17;;;;;;;27.27;10.98;;;6.30;99.90;;;;;;5115421;27;20043;-82
2022/11/26 00:35:45;;;;;;;26.65;12.38;;;5.90;99.90;;;;;;5146223;27;20053;-83
2022/11/26 00:38:14;;;;;;;24.23;11.32;;;5.80;99.90;;;;;;5119038;27;20039;-83
2022/11/26 00:40:39;;;;;;;25.98;11.75;;;5.80;99.90;;;;;;5101437;27;20050;-83
2022/11/26 00:43:05;;;;;;;25.75;12.60;;;5.80;99.90;;;;;;5101565;27;20120;-83
2022/11/26 00:45:31;;;;;;;23.45;11.07;;;5.70;99.90;;;;;;5118252;27;20095;-84
2022/11/26 00:47:56;;;;;;;32.70;12.57;;;7.50;99.90;;;;;;5118354;27;20053;-84
2022/11/26 00:50:24;;;;;;;31.33;11.90;;;6.30;99.90;;;;;;5135672;27;20053;-84
2022/11/26 00:52:51;;;;;;;34.42;12.75;;;5.70;99.90;;;;;;5116993;27;20058;-83
2022/11/26 00:55:37;;;;;;;32.47;12.13;;;5.70;99.90;;;;;;5101294;27;20045;-82
2022/11/26 00:58:03;;;;;;;31.00;12.93;;;5.70;99.90;;;;;;5118543;27;20043;-83
2022/11/26 01:00:30;;;;;;;30.70;12.27;;;5.60;99.90;;;;;;5084666;27;20115;-82
2022/11/26 01:02:55;;;;;;;23.70;12.18;;;5.60;99.90;;;;;;5119299;27;20057;-83
2022/11/26 01:05:23;;;;;;;28.52;12.52;;;6.20;99.90;;;;;;5118436;27;20062;-83
2022/11/26 01:07:49;;;;;;;30.40;12.13;;;5.50;99.90;;;;;;5084704;27;20082;-83
2022/11/26 01:10:19;;;;;;;30.55;12.25;;;5.80;99.90;;;;;;5100730;27;20099;-83
2022/11/26 01:12:45;;;;;;;28.20;11.38;;;5.50;99.90;;;;;;5100670;27;20122;-84
2022/11/26 01:15:11;;;;;;;27.25;11.43;;;5.50;99.90;;;;;;5100755;27;20137;-84
2022/11/26 01:17:37;;;;;;;29.05;12.10;;;7.10;99.90;;;;;;5100776;27;20050;-84
2022/11/26 01:20:03;;;;;;;29.45;11.75;;;5.50;99.90;;;;;;5117455;27;20080;-83
2022/11/26 01:22:29;;;;;;;27.38;11.23;;;5.40;99.90;;;;;;5117740;27;20482;-83
2022/11/26 01:24:54;;;;;;;31.60;11.45;;;6.30;99.90;;;;;;5117733;27;20039;-82
2022/11/26 01:27:21;;;;;;;34.40;11.07;;;5.40;99.90;;;;;;5118151;27;20534;-83
2022/11/26 01:29:47;;;;;;;25.80;11.50;;;6.00;99.90;;;;;;5134401;27;20514;-83
2022/11/26 01:32:13;;;;;;;26.95;10.75;;;5.40;99.90;;;;;;5100827;27;20390;-83
2022/11/26 01:34:38;;;;;;;30.15;11.20;;;5.50;99.90;;;;;;5099983;27;20494;-84
2022/11/26 01:37:11;;;;;;;31.67;11.55;;;5.90;99.90;;;;;;5134942;27;20141;-84
2022/11/26 01:39:37;;;;;;;26.02;11.25;;;5.80;99.90;;;;;;5101108;27;20482;-83
2022/11/26 01:42:24;;;;;;;24.75;11.68;;;5.70;99.90;;;;;;5117753;27;20126;-84
2022/11/26 01:44:50;;;;;;;29.20;12.02;;;5.50;99.90;;;;;;5117340;27;20074;-83
2022/11/26 01:47:21;;;;;;;28.85;12.10;;;5.60;99.90;;;;;;5117242;27;20139;-83
2022/11/26 01:50:24;;;;;;;27.00;11.82;;;5.90;99.90;;;;;;5117427;27;20039;-84
2022/11/26 01:52:50;;;;;;;25.02;11.50;;;5.40;99.90;;;;;;5134362;27;20138;-83
2022/11/26 01:55:16;;;;;;;31.85;12.07;;;5.40;99.90;;;;;;5100355;27;20129;-82
2022/11/26 01:57:42;;;;;;;25.60;11.82;;;6.40;99.90;;;;;;5083774;27;20051;-83
2022/11/26 02:00:08;;;;;;;24.00;12.38;;;5.30;99.90;;;;;;5100702;27;20050;-83
2022/11/26 02:02:34;;;;;;;34.42;11.80;;;5.20;99.90;;;;;;5117825;27;20053;-84
2022/11/26 02:05:20;;;;;;;31.15;12.93;;;5.20;99.90;;;;;;5100097;27;20130;-83
2022/11/26 02:07:46;;;;;;;30.85;12.82;;;5.20;99.90;;;;;;5100038;27;20142;-83
2022/11/26 02:10:12;;;;;;;31.83;13.40;;;5.20;99.90;;;;;;5100679;27;20475;-83
2022/11/26 02:12:38;;;;;;;36.53;13.57;;;5.20;99.90;;;;;;5100275;27;20068;-84
2022/11/26 02:15:04;;;;;;;51.17;15.43;;;5.10;99.90;;;;;;5096451;28;20479;-82
2022/11/26 02:17:36;;;;;;;33.60;13.20;;;5.10;99.90;;;;;;5097251;28;20137;-83
2022/11/26 02:20:24;;;;;;;28.38;13.73;;;5.10;99.90;;;;;;5096713;28;20519;-81
2022/11/26 02:22:57;;;;;;;28.23;13.98;;;5.10;99.90;;;;;;5079856;28;20109;-83
2022/11/26 02:25:35;;;;;;;31.73;13.25;;;5.00;99.90;;;;;;5097316;28;20097;-83
2022/11/26 02:28:07;;;;;;;34.80;13.30;;;5.00;99.90;;;;;;5113728;28;20078;-83
2022/11/26 02:30:35;;;;;;;33.55;14.15;;;5.00;99.90;;;;;;5114235;28;20043;-82
2022/11/26 02:33:20;;;;;;;36.78;14.23;;;6.20;99.90;;;;;;5098390;27;20035;-83
2022/11/26 02:35:57;;;;;;;30.83;13.73;;;4.90;99.90;;;;;;5102334;27;20055;-82
2022/11/26 02:38:24;;;;;;;36.85;13.38;;;4.90;99.90;;;;;;5101693;27;20055;-83
2022/11/26 02:40:50;;;;;;;31.40;13.35;;;4.90;99.90;;;;;;5100385;27;20051;-84
2022/11/26 02:43:16;;;;;;;35.33;14.00;;;4.90;99.90;;;;;;5100676;27;20125;-84
2022/11/26 02:45:47;;;;;;;39.65;15.20;;;4.90;99.90;;;;;;5083324;27;20122;-84
2022/11/26 02:48:15;;;;;;;35.88;14.85;;;5.60;99.90;;;;;;5101257;27;20141;-82
2022/11/26 02:50:46;;;;;;;35.85;14.77;;;5.90;99.90;;;;;;5083785;27;20051;-83
2022/11/26 02:53:12;;;;;;;31.83;13.82;;;4.80;99.90;;;;;;5084392;27;20055;-84
2022/11/26 02:55:41;;;;;;;30.50;13.43;;;4.80;99.90;;;;;;5100392;27;20039;-82
2022/11/26 02:58:07;;;;;;;42.25;15.23;;;5.10;99.90;;;;;;5101656;27;20047;-83
2022/11/26 03:00:33;;;;;;;44.78;15.82;;;4.80;99.90;;;;;;5087775;27;20356;-81
2022/11/26 03:03:09;;;;;;;35.20;15.50;;;6.00;99.90;;;;;;5100103;27;20079;-84
2022/11/26 03:05:36;;;;;;;35.50;15.77;;;4.70;99.90;;;;;;5084722;27;20054;-85
2022/11/26 03:08:02;;;;;;;31.85;14.52;;;5.30;99.90;;;;;;5099989;27;20095;-83
2022/11/26 03:10:29;;;;;;;45.55;16.02;;;4.70;99.90;;;;;;5100373;27;20050;-82
2022/11/26 03:12:55;;;;;;;43.00;15.32;;;4.70;99.90;;;;;;5099378;27;20501;-84
2022/11/26 03:15:20;;;;;;;32.90;14.82;;;5.80;99.90;;;;;;5099676;27;20043;-83
2022/11/26 03:17:46;;;;;;;34.92;15.65;;;4.70;99.90;;;;;;5116747;27;20394;-83
2022/11/26 03:20:12;;;;;;;39.67;16.73;;;4.90;99.90;;;;;;5083030;27;20078;-83
2022/11/26 03:22:37;;;;;;;29.83;15.45;;;4.70;99.90;;;;;;5082917;27;20375;-82
2022/11/26 03:25:04;;;;;;;45.53;16.08;;;4.70;99.90;;;;;;5082877;27;20047;-83
2022/11/26 03:27:30;;;;;;;34.03;15.93;;;4.70;99.90;;;;;;5082684;27;20051;-82
2022/11/26 03:29:55;;;;;;;39.75;15.77;;;4.70;99.90;;;;;;5098851;27;20047;-82
2022/11/26 03:32:21;;;;;;;40.08;15.93;;;4.70;99.90;;;;;;5099561;27;20107;-82
2022/11/26 03:34:47;;;;;;;33.45;15.00;;;4.70;99.90;;;;;;5098831;27;20055;-87
2022/11/26 03:37:12;;;;;;;34.53;15.95;;;5.20;99.90;;;;;;5099321;27;20043;-83
2022/11/26 03:39:38;;;;;;;36.40;16.42;;;4.90;99.90;;;;;;5099537;27;20043;-84
2022/11/26 03:42:04;;;;;;;35.88;16.70;;;5.60;99.90;;;;;;5099042;27;20042;-82
2022/11/26 03:44:29;;;;;;;39.38;15.52;;;4.60;99.90;;;;;;5082044;27;20156;-83
2022/11/26 03:46:55;;;;;;;39.35;15.25;;;4.60;99.90;;;;;;5115877;27;20091;-83
2022/11/26 03:49:21;;;;;;;35.60;16.08;;;5.80;99.90;;;;;;5099222;27;20395;-83
2022/11/26 03:51:46;;;;;;;32.28;14.88;;;4.60;99.90;;;;;;5116082;27;20501;-83
2022/11/26 03:54:12;;;;;;;39.78;16.23;;;5.90;99.90;;;;;;5081665;27;20050;-82
2022/11/26 03:56:37;;;;;;;33.95;16.05;;;4.70;99.90;;;;;;5098809;27;20043;-82
2022/11/26 03:59:03;;;;;;;34.63;15.27;;;4.70;99.90;;;;;;5098971;27;20395;-82
2022/11/26 04:01:29;;;;;;;36.53;15.73;;;4.70;99.90;;;;;;5103337;27;20395;-82
2022/11/26 04:03:54;;;;;;;35.33;14.93;;;6.30;99.90;;;;;;5102277;27;20053;-81
2022/11/26 04:06:20;;;;;;;36.20;15.13;;;4.70;99.90;;;;;;5099582;27;20047;-83
2022/11/26 04:08:46;;;;;;;41.15;15.13;;;4.70;99.90;;;;;;5098829;27;20054;-83
2022/11/26 04:11:12;;;;;;;38.60;15.93;;;4.70;99.90;;;;;;5099060;27;20168;-85
2022/11/26 04:13:38;;;;;;;38.17;15.07;;;5.60;99.90;;;;;;5098476;27;20368;-84
2022/11/26 04:16:03;;;;;;;43.97;15.75;;;5.60;99.90;;;;;;5081251;27;20062;-85
2022/11/26 04:18:29;;;;;;;40.50;16.15;;;4.70;99.90;;;;;;5082020;27;20491;-83
2022/11/26 04:20:55;;;;;;;33.05;16.00;;;5.70;99.90;;;;;;5081862;27;20045;-84
2022/11/26 04:23:20;;;;;;;40.42;15.65;;;5.10;99.90;;;;;;5120118;27;20039;-83
2022/11/26 04:25:46;;;;;;;35.75;15.40;;;4.70;99.90;;;;;;5117261;27;20150;-83
2022/11/26 04:28:13;;;;;;;41.65;16.08;;;4.70;99.90;;;;;;5115356;27;20102;-83
2022/11/26 04:30:41;;;;;;;33.47;16.55;;;5.20;99.90;;;;;;5098617;27;20062;-82
2022/11/26 04:33:06;;;;;;;34.22;16.10;;;4.70;99.90;;;;;;5098339;27;20457;-82
2022/11/26 04:35:32;;;;;;;37.90;15.35;;;4.70;99.90;;;;;;5081299;27;20082;-84
2022/11/26 04:37:58;;;;;;;42.33;16.77;;;4.70;99.90;;;;;;5098095;27;20062;-81
2022/11/26 04:40:23;;;;;;;43.83;16.58;;;5.10;99.90;;;;;;5098636;27;20124;-83
2022/11/26 04:42:49;;;;;;;42.92;16.23;;;4.70;99.90;;;;;;5115175;27;20058;-83
2022/11/26 04:45:15;;;;;;;39.35;16.95;;;5.20;99.90;;;;;;5097820;27;20051;-84
2022/11/26 04:47:40;;;;;;;37.15;17.35;;;4.60;99.90;;;;;;5098189;27;20043;-84
2022/11/26 04:50:07;;;;;;;41.78;17.10;;;6.10;99.90;;;;;;5097490;27;20058;-83
2022/11/26 04:52:32;;;;;;;44.15;17.38;;;4.60;99.90;;;;;;5081181;27;20047;-82
2022/11/26 04:54:58;;;;;;;42.50;16.80;;;6.20;99.90;;;;;;5096721;28;20043;-83
2022/11/26 04:57:23;;;;;;;44.20;16.23;;;4.60;99.90;;;;;;5081260;27;20050;-84
2022/11/26 04:59:52;;;;;;;45.17;18.60;;;4.60;99.90;;;;;;5115051;27;20503;-83
2022/11/26 05:02:18;;;;;;;39.10;17.50;;;4.50;99.90;;;;;;5097296;27;20166;-83
2022/11/26 05:04:43;;;;;;;40.03;17.70;;;5.30;99.90;;;;;;5097856;27;20047;-84
2022/11/26 05:07:10;;;;;;;47.33;18.33;;;4.50;99.90;;;;;;5080675;27;20039;-84
2022/11/26 05:09:35;;;;;;;40.10;17.60;;;6.30;99.90;;;;;;5115053;27;20035;-84
2022/11/26 05:12:01;;;;;;;45.90;18.42;;;4.50;99.90;;;;;;5097458;27;20051;-84
2022/11/26 05:14:26;;;;;;;40.53;18.35;;;6.00;99.90;;;;;;5114291;27;20036;-83
2022/11/26 05:16:52;;;;;;;38.55;18.83;;;4.50;99.90;;;;;;5097667;27;20043;-84
2022/11/26 05:19:18;;;;;;;48.88;19.30;;;4.70;99.90;;;;;;5097278;27;20046;-83
2022/11/26 05:21:44;;;;;;;51.45;20.15;;;4.50;99.90;;;;;;5081010;27;20047;-83
2022/11/26 05:24:10;;;;;;;40.25;19.90;;;5.80;99.90;;;;;;5097383;27;20472;-82
2022/11/26 05:26:35;;;;;;;51.40;21.58;;;6.10;99.90;;;;;;5115947;27;20280;-83
2022/11/26 05:29:01;;;;;;;44.33;20.48;;;4.50;99.90;;;;;;5102059;27;20497;-86
2022/11/26 05:31:27;;;;;;;54.95;21.83;;;4.60;99.90;;;;;;5115135;27;20051;-83
2022/11/26 05:33:53;;;;;;;45.22;20.55;;;4.90;99.90;;;;;;5114101;27;20050;-83
2022/11/26 05:36:19;;;;;;;63.15;22.17;;;4.70;99.90;;;;;;5079761;27;20050;-83
2022/11/26 05:38:44;;;;;;;50.30;21.25;;;4.60;99.90;;;;;;5097244;27;20125;-83
2022/11/26 05:41:10;;;;;;;51.88;21.90;;;4.50;99.90;;;;;;5114075;28;20399;-84
2022/11/26 05:43:36;;;;;;;55.35;22.25;;;4.60;99.90;;;;;;5097441;27;20047;-83
2022/11/26 05:46:05;;;;;;;55.58;22.17;;;4.70;99.90;;;;;;5097179;28;20042;-82
2022/11/26 05:48:31;;;;;;;52.17;21.10;;;4.50;99.90;;;;;;5097176;28;20157;-83
2022/11/26 05:50:58;;;;;;;51.50;21.65;;;4.90;99.90;;;;;;5080531;28;20133;-83
2022/11/26 05:53:24;;;;;;;52.72;23.05;;;4.50;99.90;;;;;;5113662;28;20502;-85
2022/11/26 05:55:49;;;;;;;54.75;23.20;;;5.70;99.90;;;;;;5114065;28;20039;-82
2022/11/26 05:58:15;;;;;;;49.40;22.45;;;5.40;99.90;;;;;;5115219;28;20554;-84
2022/11/26 06:00:41;;;;;;;54.17;22.50;;;5.30;99.90;;;;;;5097403;28;20039;-83
2022/11/26 06:03:06;;;;;;;55.05;23.88;;;5.80;99.90;;;;;;5096909;28;20134;-83
2022/11/26 06:05:32;;;;;;;45.92;24.02;;;4.70;99.90;;;;;;5097328;28;20053;-83
2022/11/26 06:07:58;;;;;;;57.45;23.77;;;6.00;99.90;;;;;;5100623;27;20047;-84
2022/11/26 06:10:23;;;;;;;50.65;22.63;;;4.50;99.90;;;;;;5083997;27;20047;-83
2022/11/26 06:12:49;;;;;;;53.97;23.38;;;4.50;99.90;;;;;;5101323;27;20051;-83
2022/11/26 06:15:15;;;;;;;60.55;24.05;;;4.60;99.90;;;;;;5100738;27;20039;-83
2022/11/26 06:17:40;;;;;;;61.17;24.60;;;4.60;99.90;;;;;;5129456;27;20151;-83
2022/11/26 06:20:06;;;;;;;56.83;23.90;;;4.50;99.90;;;;;;5104565;27;20400;-82
2022/11/26 06:22:37;;;;;;;63.60;23.60;;;4.50;99.90;;;;;;5120567;27;20042;-82
2022/11/26 06:25:03;;;;;;;52.75;24.65;;;4.50;99.90;;;;;;5104599;27;20082;-81
2022/11/26 06:27:31;;;;;;;60.95;24.00;;;4.50;99.90;;;;;;5104044;27;20051;-82
2022/11/26 06:29:56;;;;;;;68.60;25.27;;;6.00;99.90;;;;;;5104462;27;20099;-84
2022/11/26 06:32:22;;;;;;;53.95;24.05;;;5.00;99.90;;;;;;5137643;27;20043;-84
2022/11/26 06:34:48;;;;;;;65.88;24.98;;;5.00;99.90;;;;;;5103396;27;20047;-83
2022/11/26 06:37:13;;;;;;;60.55;24.85;;;4.50;99.90;;;;;;5104100;27;20528;-82
2022/11/26 06:39:40;;;;;;;68.75;25.35;;;4.60;99.90;;;;;;5121129;27;20042;-83
2022/11/26 06:42:06;;;;;;;55.90;24.00;;;4.60;99.90;;;;;;5121447;27;20047;-82
2022/11/26 06:44:34;;;;;;;66.65;24.90;;;4.60;99.90;;;;;;5121037;27;20043;-84
2022/11/26 06:47:00;;;;;;;62.90;25.77;;;4.60;99.90;;;;;;5103819;27;20039;-83
2022/11/26 06:49:26;;;;;;;61.35;25.02;;;4.70;99.90;;;;;;5120448;27;20057;-81
2022/11/26 06:51:52;;;;;;;64.93;26.20;;;4.60;99.90;;;;;;5137902;27;20086;-83
2022/11/26 06:54:18;;;;;;;55.72;24.42;;;4.60;99.90;;;;;;5103464;27;20129;-84
2022/11/26 06:56:43;;;;;;;61.80;24.85;;;4.60;99.90;;;;;;5137592;27;20187;-83
2022/11/26 06:59:10;;;;;;;58.97;24.00;;;4.60;99.90;;;;;;5103830;27;20137;-83
2022/11/26 07:01:36;;;;;;;59.22;24.52;;;6.40;99.90;;;;;;5137776;27;20038;-83
2022/11/26 07:04:01;;;;;;;57.00;24.45;;;4.60;99.90;;;;;;5138077;27;20378;-83
2022/11/26 07:06:28;;;;;;;65.57;24.92;;;5.60;99.90;;;;;;5120349;27;20055;-83
2022/11/26 07:08:55;;;;;;;65.65;24.08;;;5.90;99.90;;;;;;5087037;27;20133;-83
2022/11/26 07:11:21;;;;;;;58.55;25.65;;;4.60;99.90;;;;;;5103755;27;20038;-82
2022/11/26 07:13:47;;;;;;;66.18;24.45;;;5.00;99.90;;;;;;5103580;27;20050;-81
2022/11/26 07:16:13;;;;;;;68.18;25.45;;;4.60;99.90;;;;;;5086468;27;20051;-83
2022/11/26 07:18:40;;;;;;;58.85;23.58;;;6.10;99.90;;;;;;5102337;27;20050;-83
2022/11/26 07:21:11;;;;;;;56.10;23.98;;;6.10;99.90;;;;;;5103706;27;20055;-83
2022/11/26 07:23:39;;;;;;;62.50;23.65;;;4.70;99.90;;;;;;5119582;27;20141;-82
2022/11/26 07:26:05;;;;;;;53.35;22.45;;;5.40;99.90;;;;;;5119502;27;20047;-83
2022/11/26 07:28:31;;;;;;;57.15;22.40;;;4.70;99.90;;;;;;5102180;27;20093;-84
2022/11/26 07:31:01;;;;;;;58.22;22.52;;;4.90;99.90;;;;;;5119768;27;20078;-83
2022/11/26 07:33:28;;;;;;;47.45;22.40;;;4.60;99.90;;;;;;5085638;27;20050;-81
2022/11/26 07:35:54;;;;;;;56.85;24.08;;;4.60;99.90;;;;;;5118907;27;20064;-83
2022/11/26 07:38:20;;;;;;;55.65;22.55;;;5.80;99.90;;;;;;5102196;27;20054;-83
2022/11/26 07:40:45;;;;;;;57.83;23.83;;;4.70;99.90;;;;;;5102175;27;20532;-84
2022/11/26 07:43:11;;;;;;;53.17;21.73;;;5.70;99.90;;;;;;5136602;27;20098;-85
2022/11/26 07:45:37;;;;;;;60.80;23.42;;;4.80;99.90;;;;;;5119628;27;20057;-84
2022/11/26 07:48:03;;;;;;;50.38;23.52;;;5.40;99.90;;;;;;5102755;27;20046;-82
2022/11/26 07:50:29;;;;;;;52.60;22.15;;;4.80;99.90;;;;;;5084952;27;20136;-84
2022/11/26 07:52:55;;;;;;;50.08;22.40;;;4.90;99.90;;;;;;5119298;27;20050;-83
2022/11/26 07:55:21;;;;;;;54.55;23.42;;;5.50;99.90;;;;;;5118818;27;20397;-88
2022/11/26 07:57:46;;;;;;;50.65;23.35;;;5.00;99.90;;;;;;5119113;27;20402;-82
2022/11/26 08:00:12;;;;;;;47.65;21.83;;;5.00;99.90;;;;;;5101714;27;20062;-84
2022/11/26 08:02:39;;;;;;;52.88;22.75;;;5.00;99.90;;;;;;5102468;27;20175;-83
2022/11/26 08:05:05;;;;;;;55.95;22.50;;;5.10;99.90;;;;;;5119372;27;20133;-83
2022/11/26 08:07:31;;;;;;;53.35;22.70;;;5.20;99.90;;;;;;5102141;27;20133;-83
2022/11/26 08:09:56;;;;;;;55.63;21.85;;;5.80;99.90;;;;;;5106494;27;20066;-83
2022/11/26 08:12:22;;;;;;;48.17;21.67;;;5.30;99.90;;;;;;5102987;27;20047;-83
2022/11/26 08:14:48;;;;;;;47.75;19.95;;;6.00;99.90;;;;;;5101604;27;20043;-83
2022/11/26 08:17:13;;;;;;;53.92;22.05;;;6.00;99.90;;;;;;5084807;27;20489;-83
2022/11/26 08:19:39;;;;;;;51.33;21.55;;;5.60;99.90;;;;;;5135102;27;20179;-83
2022/11/26 08:22:04;;;;;;;46.05;20.10;;;5.60;99.90;;;;;;5135511;27;20087;-82
2022/11/26 08:24:30;;;;;;;52.28;20.50;;;5.70;99.90;;;;;;5119091;27;20046;-83
2022/11/26 08:26:58;;;;;;;45.08;19.20;;;5.80;99.90;;;;;;5136849;27;20379;-83
2022/11/26 08:29:24;;;;;;;50.05;20.83;;;5.80;99.90;;;;;;5118307;27;20039;-83
2022/11/26 08:31:49;;;;;;;50.08;20.40;;;5.80;99.90;;;;;;5100869;27;20049;-83
2022/11/26 08:34:15;;;;;;;42.67;18.58;;;5.90;99.90;;;;;;5118419;27;20407;-84
2022/11/26 08:36:41;;;;;;;37.25;17.20;;;5.90;99.90;;;;;;5093586;28;20063;-83
2022/11/26 08:39:07;;;;;;;34.83;17.70;;;6.80;99.90;;;;;;5111351;28;20050;-83
2022/11/26 08:41:32;;;;;;;41.80;18.02;;;5.90;99.90;;;;;;5076787;28;20487;-84
2022/11/26 08:43:58;;;;;;;37.15;17.17;;;6.30;99.90;;;;;;5110795;28;20052;-84
2022/11/26 08:46:24;;;;;;;40.53;17.45;;;6.20;99.90;;;;;;5111444;28;20040;-84
2022/11/26 08:48:50;;;;;;;36.17;16.67;;;6.30;99.90;;;;;;5110663;28;20047;-85
2022/11/26 08:51:16;;;;;;;37.58;16.17;;;6.60;99.90;;;;;;5076867;28;20399;-84
2022/11/26 08:53:42;;;;;;;42.33;16.40;;;6.80;99.90;;;;;;5075927;28;20479;-85
2022/11/26 08:56:09;;;;;;;41.00;16.83;;;7.00;99.90;;;;;;5074839;28;20039;-83
2022/11/26 08:58:36;;;;;;;37.60;16.42;;;7.20;99.90;;;;;;5066829;28;20092;-84
2022/11/26 09:01:12;;;;;;;32.75;16.70;;;7.20;99.90;;;;;;5059435;28;20047;-85
2022/11/26 09:03:38;;;;;;;34.88;15.00;;;7.20;99.90;;;;;;5109576;28;20052;-84
2022/11/26 09:06:05;;;;;;;32.75;16.25;;;8.50;99.90;;;;;;5076571;28;20054;-84
2022/11/26 09:08:33;;;;;;;29.23;15.00;;;7.30;99.90;;;;;;5110245;27;20478;-85
2022/11/26 09:10:59;;;;;;;34.88;14.88;;;7.40;99.90;;;;;;5108796;28;20047;-83
2022/11/26 09:13:26;;;;;;;31.15;14.25;;;7.30;99.90;;;;;;5110275;28;20121;-83
2022/11/26 09:15:51;;;;;;;31.13;13.98;;;7.30;99.90;;;;;;5109629;27;20077;-83
2022/11/26 09:18:17;;;;;;;30.17;14.77;;;7.90;99.90;;;;;;5110658;28;20395;-82
2022/11/26 09:20:43;;;;;;;26.42;14.77;;;7.10;99.90;;;;;;5076838;28;20047;-83
2022/11/26 09:23:08;;;;;;;30.00;14.48;;;7.20;99.90;;;;;;5110876;28;20085;-83
2022/11/26 09:25:37;;;;;;;31.77;14.50;;;8.30;99.90;;;;;;5076047;28;20071;-85
2022/11/26 09:28:03;;;;;;;25.88;14.48;;;7.10;99.90;;;;;;5110654;28;20039;-84
2022/11/26 09:30:29;;;;;;;33.22;13.48;;;7.10;99.90;;;;;;5110914;28;20105;-82
2022/11/26 09:32:54;;;;;;;27.52;13.38;;;7.10;99.90;;;;;;5109766;28;20043;-83
2022/11/26 09:35:20;;;;;;;28.88;14.02;;;7.10;99.90;;;;;;5062460;27;20046;-83
2022/11/26 09:37:46;;;;;;;29.63;14.32;;;7.10;99.90;;;;;;5133441;27;20051;-83
2022/11/26 09:40:15;;;;;;;33.60;14.75;;;7.20;99.90;;;;;;5117868;27;20117;-85
2022/11/26 09:43:04;;;;;;;25.88;13.50;;;7.10;99.90;;;;;;5099103;27;20046;-84
2022/11/26 09:45:40;;;;;;;28.95;14.88;;;7.20;99.90;;;;;;5099549;27;20050;-85
2022/11/26 09:48:15;;;;;;;27.75;15.55;;;7.30;99.90;;;;;;5117107;27;20061;-84
2022/11/26 09:50:41;;;;;;;30.63;16.73;;;7.20;99.90;;;;;;5081308;27;20046;-83
2022/11/26 09:53:18;;;;;;;30.73;15.65;;;7.60;99.90;;;;;;5084365;27;20043;-83
2022/11/26 09:55:46;;;;;;;32.55;16.30;;;7.10;99.90;;;;;;5117333;27;20087;-84
2022/11/26 09:58:32;;;;;;;27.15;16.63;;;7.20;99.90;;;;;;5099767;27;20053;-84
2022/11/26 10:00:58;;;;;;;37.28;18.55;;;7.20;99.90;;;;;;5084470;27;20045;-84
2022/11/26 10:03:34;;;;;;;32.00;18.33;;;7.10;99.90;;;;;;5099096;27;20046;-85
2022/11/26 10:06:23;;;;;;;32.35;18.13;;;7.00;99.90;;;;;;5081388;27;20163;-85
2022/11/26 10:09:19;;;;;;;34.25;18.75;;;7.10;99.90;;;;;;5103243;27;20143;-85
2022/11/26 10:11:54;;;;;;;39.25;17.98;;;7.20;99.90;;;;;;5114794;27;20528;-85
2022/11/26 10:14:42;;;;;;;36.00;19.25;;;7.20;99.90;;;;;;5124984;27;20047;-84
2022/11/26 10:17:42;;;;;;;31.98;17.85;;;7.30;99.90;;;;;;5116598;27;20418;-84
2022/11/26 10:20:44;;;;;;;42.72;20.20;;;7.20;99.90;;;;;;5115133;27;20046;-84
2022/11/26 10:23:10;;;;;;;34.97;19.63;;;7.30;99.90;;;;;;5102180;28;20418;-83
2022/11/26 10:25:49;;;;;;;43.92;21.83;;;7.30;99.90;;;;;;5096660;28;20047;-81
2022/11/26 10:28:37;;;;;;;37.80;21.17;;;7.30;99.90;;;;;;5097108;28;20050;-83
2022/11/26 10:31:05;;;;;;;34.95;21.13;;;7.30;99.90;;;;;;5083945;28;20055;-84
2022/11/26 10:33:37;;;;;;;40.92;22.85;;;7.30;99.90;;;;;;5097748;28;20055;-85
2022/11/26 10:36:05;;;;;;;43.35;23.73;;;7.50;99.90;;;;;;5096044;27;20072;-83
2022/11/26 10:38:31;;;;;;;43.10;23.05;;;7.40;99.90;;;;;;5096366;28;20208;-84
2022/11/26 10:40:56;;;;;;;47.53;23.48;;;7.50;99.90;;;;;;5109315;27;20533;-84
2022/11/26 10:43:23;;;;;;;39.75;23.90;;;7.60;99.90;;;;;;5099706;27;20057;-84
2022/11/26 10:45:53;;;;;;;44.13;24.50;;;7.60;99.90;;;;;;5099647;27;20043;-84
2022/11/26 10:48:27;;;;;;;50.30;24.67;;;7.70;99.90;;;;;;5099885;27;20050;-84
2022/11/26 10:51:05;;;;;;;47.20;24.00;;;7.70;99.90;;;;;;5105001;27;20032;-82
2022/11/26 10:53:49;;;;;;;47.17;24.83;;;7.80;99.90;;;;;;5097918;27;20299;-84
2022/11/26 10:56:19;;;;;;;50.87;24.37;;;7.80;99.90;;;;;;5118380;27;20142;-83
2022/11/26 10:58:45;;;;;;;38.72;23.08;;;7.90;99.90;;;;;;5103495;27;20051;-84
2022/11/26 11:01:13;;;;;;;47.55;25.80;;;7.90;99.90;;;;;;5103553;27;20482;-84
2022/11/26 11:03:46;;;;;;;53.80;27.02;;;7.90;99.90;;;;;;5087601;27;20077;-82
2022/11/26 11:06:18;;;;;;;49.42;24.90;;;7.80;99.90;;;;;;5122031;27;20047;-85
2022/11/26 11:08:48;;;;;;;46.60;24.77;;;8.00;99.90;;;;;;5120489;27;20076;-85
2022/11/26 11:11:20;;;;;;;44.17;23.63;;;8.00;99.90;;;;;;5087177;27;20444;-84
2022/11/26 11:13:46;;;;;;;49.50;25.33;;;8.00;99.90;;;;;;5104011;27;20058;-84
2022/11/26 11:16:13;;;;;;;45.05;25.55;;;8.00;99.90;;;;;;5101920;27;20031;-85
2022/11/26 11:19:19;;;;;;;43.20;24.05;;;8.00;99.90;;;;;;5103783;27;20047;-83
2022/11/26 11:21:45;;;;;;;47.35;23.08;;;8.10;99.90;;;;;;5105298;27;20058;-82
2022/11/26 11:24:26;;;;;;;43.10;23.65;;;8.10;99.90;;;;;;5102775;27;20132;-82
2022/11/26 11:26:52;;;;;;;50.05;23.35;;;8.20;99.90;;;;;;5102865;27;20634;-82
2022/11/26 11:29:24;;;;;;;45.13;22.98;;;9.00;99.90;;;;;;5102029;27;20039;-82
2022/11/26 11:31:50;;;;;;;49.92;21.98;;;8.40;99.90;;;;;;5115642;27;20105;-81
2022/11/26 11:34:20;;;;;;;49.70;22.50;;;8.30;99.90;;;;;;5081695;27;20572;-82
2022/11/26 11:37:13;;;;;;;45.58;22.98;;;8.30;99.90;;;;;;5082233;27;20062;-83
2022/11/26 11:39:39;;;;;;;45.78;24.42;;;8.30;99.90;;;;;;5108444;27;20050;-82
2022/11/26 11:42:27;;;;;;;54.22;25.02;;;8.40;99.90;;;;;;5084785;27;20070;-83
2022/11/26 11:44:52;;;;;;;44.97;23.35;;;8.40;99.90;;;;;;5103133;27;20141;-84
2022/11/26 11:47:30;;;;;;;48.72;25.05;;;8.40;99.90;;;;;;5102123;27;20118;-82
2022/11/26 11:50:05;;;;;;;49.03;24.33;;;8.40;99.90;;;;;;5136538;27;20034;-82
2022/11/26 11:52:49;;;;;;;49.50;24.75;;;8.40;99.90;;;;;;5120386;27;20466;-82
2022/11/26 11:55:30;;;;;;;48.65;23.25;;;8.40;99.90;;;;;;5119422;27;20035;-82
2022/11/26 11:58:24;;;;;;;49.15;24.05;;;8.50;99.90;;;;;;5120235;27;20057;-82
2022/11/26 12:01:18;;;;;;;50.20;24.75;;;8.50;99.90;;;;;;5105906;27;20051;-82
2022/11/26 12:04:24;;;;;;;47.17;23.23;;;8.50;99.90;;;;;;5109746;27;20436;-82
2022/11/26 12:07:03;;;;;;;45.90;22.65;;;8.50;99.90;;;;;;5137085;27;20474;-82
2022/11/26 12:09:36;;;;;;;46.78;22.63;;;8.40;99.90;;;;;;5137190;27;20135;-82
2022/11/26 12:12:22;;;;;;;44.67;21.40;;;8.40;99.90;;;;;;5102311;27;20090;-82
2022/11/26 12:15:10;;;;;;;50.67;22.80;;;8.50;99.90;;;;;;5119407;27;20125;-83
2022/11/26 12:17:49;;;;;;;43.15;22.67;;;8.50;99.90;;;;;;5136528;27;20073;-81
2022/11/26 12:20:29;;;;;;;47.10;24.38;;;8.50;99.90;;;;;;5103082;27;20069;-81
2022/11/26 12:23:14;;;;;;;47.30;22.48;;;8.50;99.90;;;;;;5120555;27;20478;-82
2022/11/26 12:25:39;;;;;;;47.67;22.02;;;8.50;99.90;;;;;;5136025;27;20043;-82
2022/11/26 12:28:28;;;;;;;47.15;22.08;;;8.70;99.90;;;;;;5118831;27;20042;-81
2022/11/26 12:31:10;;;;;;;51.83;23.40;;;8.50;99.90;;;;;;5102195;27;20063;-81
2022/11/26 12:33:47;;;;;;;48.50;21.45;;;8.50;99.90;;;;;;5087816;27;20098;-81
2022/11/26 12:36:16;;;;;;;48.33;21.27;;;8.60;99.90;;;;;;5101510;27;20038;-81
2022/11/26 12:38:45;;;;;;;46.65;21.52;;;8.50;99.90;;;;;;5135497;27;20055;-81
2022/11/26 12:41:19;;;;;;;40.47;21.05;;;8.70;99.90;;;;;;5101758;27;20082;-82
2022/11/26 12:44:15;;;;;;;45.63;22.05;;;8.60;99.90;;;;;;5102457;27;20051;-81
2022/11/26 12:47:02;;;;;;;46.55;22.83;;;8.60;99.90;;;;;;5119075;27;20090;-81